Time;durP1;ratioP1;P1;durP2;ratioP2;P2;SDS_P1;SDS_P2;PMS_P1;PMS_P2;Temp;Humidity;BMP_temperature;BMP_pressure;BME280_temperature;BME280_humidity;BME280_pressure;Samples;Min_cycle;Max_cycle;Signal;HPM_P1;HPM_P2
2024/02/18 00:00:08;;;;;;;11.70;8.60;;;11.00;99.90;;;;;;5003138;28;20718;-88
2024/02/18 00:02:36;;;;;;;6.53;5.93;;;11.10;99.90;;;;;;5001184;28;20364;-88
2024/02/18 00:05:04;;;;;;;5.43;4.63;;;11.10;99.90;;;;;;5003243;28;20278;-88
2024/02/18 00:07:30;;;;;;;10.60;7.70;;;11.00;99.90;;;;;;5000612;28;20235;-88
2024/02/18 00:09:56;;;;;;;7.03;5.43;;;11.10;99.90;;;;;;4996787;28;20253;-88
2024/02/18 00:12:24;;;;;;;16.20;5.83;;;10.80;99.90;;;;;;4995519;28;20683;-89
2024/02/18 00:14:54;;;;;;;9.50;6.37;;;11.10;99.90;;;;;;5028647;28;20893;-88
2024/02/18 00:17:19;;;;;;;6.80;5.10;;;10.90;99.90;;;;;;4995547;28;20294;-88
2024/02/18 00:19:45;;;;;;;15.43;6.30;;;11.20;99.90;;;;;;5010084;28;20233;-88
2024/02/18 00:22:11;;;;;;;8.97;5.73;;;10.90;99.90;;;;;;5002603;28;20287;-88
2024/02/18 00:24:37;;;;;;;14.70;8.57;;;10.80;99.90;;;;;;4995225;28;20226;-89
2024/02/18 00:27:03;;;;;;;10.17;5.93;;;11.10;99.90;;;;;;5018981;28;20371;-88
2024/02/18 00:29:29;;;;;;;8.53;5.33;;;10.90;99.90;;;;;;5010804;28;20249;-88
2024/02/18 00:31:55;;;;;;;9.90;4.30;;;10.80;99.90;;;;;;5033615;28;20318;-88
2024/02/18 00:34:21;;;;;;;9.73;5.77;;;10.90;99.90;;;;;;5001572;28;20225;-88
2024/02/18 00:36:48;;;;;;;6.10;5.50;;;11.00;99.90;;;;;;4984826;28;20691;-88
2024/02/18 00:39:14;;;;;;;9.03;6.00;;;11.20;99.90;;;;;;5017190;28;20225;-89
2024/02/18 00:41:43;;;;;;;9.83;7.20;;;10.90;99.90;;;;;;4991997;28;20226;-89
2024/02/18 00:44:09;;;;;;;10.97;6.13;;;11.20;99.90;;;;;;4976666;28;20567;-88
2024/02/18 00:46:35;;;;;;;6.87;6.20;;;11.20;99.90;;;;;;5011770;28;20218;-89
2024/02/18 00:49:01;;;;;;;6.70;5.07;;;11.10;99.90;;;;;;5016793;28;20297;-89
2024/02/18 00:51:27;;;;;;;9.00;5.30;;;11.10;99.90;;;;;;4984455;28;20366;-88
2024/02/18 00:53:53;;;;;;;6.57;5.33;;;10.90;99.90;;;;;;4991634;28;20314;-88
2024/02/18 00:56:20;;;;;;;8.43;5.30;;;11.00;99.90;;;;;;4975637;28;20271;-88
2024/02/18 00:58:48;;;;;;;9.73;5.17;;;11.00;99.90;;;;;;5001643;28;20191;-89
2024/02/18 01:01:14;;;;;;;15.80;6.17;;;11.10;99.90;;;;;;5013406;28;20226;-89
2024/02/18 01:03:40;;;;;;;8.47;5.70;;;11.00;99.90;;;;;;4991935;28;20254;-88
2024/02/18 01:06:06;;;;;;;7.57;4.40;;;11.00;99.90;;;;;;4972196;28;20222;-89
2024/02/18 01:08:32;;;;;;;8.83;6.50;;;10.90;99.90;;;;;;5004301;28;20222;-88
2024/02/18 01:10:58;;;;;;;7.07;6.37;;;11.20;99.90;;;;;;5003441;28;20237;-89
2024/02/18 01:13:24;;;;;;;11.37;5.93;;;11.00;99.90;;;;;;5000433;28;20314;-88
2024/02/18 01:15:50;;;;;;;9.03;6.10;;;11.00;99.90;;;;;;5011076;28;20237;-88
2024/02/18 01:18:15;;;;;;;8.27;4.90;;;11.10;99.90;;;;;;4996791;28;20222;-88
2024/02/18 01:20:41;;;;;;;9.77;5.87;;;11.00;99.90;;;;;;5000784;28;20575;-88
2024/02/18 01:23:07;;;;;;;9.90;6.10;;;10.90;99.90;;;;;;5017353;28;20405;-89
2024/02/18 01:25:33;;;;;;;10.20;6.10;;;11.20;99.90;;;;;;5001094;28;20222;-88
2024/02/18 01:27:59;;;;;;;6.73;4.20;;;11.00;99.90;;;;;;5019481;28;20269;-89
2024/02/18 01:30:25;;;;;;;10.33;5.97;;;11.20;99.90;;;;;;5019084;28;20237;-89
2024/02/18 01:32:50;;;;;;;8.13;4.67;;;11.10;99.90;;;;;;5017675;28;20241;-89
2024/02/18 01:35:16;;;;;;;9.93;6.10;;;11.20;99.90;;;;;;5002029;28;20237;-89
2024/02/18 01:37:43;;;;;;;15.00;6.07;;;11.10;99.90;;;;;;5003233;28;20206;-89
2024/02/18 01:40:09;;;;;;;5.40;4.90;;;11.30;99.90;;;;;;4994919;28;20233;-89
2024/02/18 01:42:41;;;;;;;8.30;4.80;;;11.10;99.90;;;;;;4987150;28;20223;-89
2024/02/18 01:45:08;;;;;;;9.23;5.60;;;11.10;99.90;;;;;;4995330;28;20276;-89
2024/02/18 01:47:38;;;;;;;12.73;5.30;;;11.10;99.90;;;;;;5011280;28;20225;-89
2024/02/18 01:50:08;;;;;;;7.80;5.73;;;11.20;99.90;;;;;;5027627;28;20659;-89
2024/02/18 01:52:34;;;;;;;12.43;5.47;;;11.20;99.90;;;;;;5010768;28;20313;-89
2024/02/18 01:55:01;;;;;;;7.57;4.03;;;11.30;99.90;;;;;;5010240;28;20226;-89
2024/02/18 01:57:30;;;;;;;14.13;6.23;;;11.40;99.90;;;;;;4994434;28;20376;-89
2024/02/18 01:59:59;;;;;;;7.53;5.20;;;11.20;99.90;;;;;;5005363;28;20223;-88
2024/02/18 02:02:25;;;;;;;13.43;5.37;;;11.20;99.90;;;;;;5009985;28;20681;-88
2024/02/18 02:04:51;;;;;;;8.83;5.17;;;11.20;99.90;;;;;;4995083;28;20203;-88
2024/02/18 02:07:19;;;;;;;10.57;4.70;;;11.20;99.90;;;;;;5010933;28;20227;-89
2024/02/18 02:09:45;;;;;;;4.60;3.47;;;11.40;99.90;;;;;;5009612;28;20313;-88
2024/02/18 02:12:11;;;;;;;6.77;3.73;;;11.20;99.90;;;;;;4994987;28;20218;-89
2024/02/18 02:14:37;;;;;;;12.60;5.50;;;11.20;99.90;;;;;;5010750;28;20265;-89
2024/02/18 02:17:05;;;;;;;6.57;3.70;;;11.40;99.90;;;;;;4995568;28;20212;-89
2024/02/18 02:19:31;;;;;;;5.10;3.67;;;11.30;99.90;;;;;;4991988;28;20319;-89
2024/02/18 02:21:56;;;;;;;4.70;3.43;;;11.40;99.90;;;;;;5010693;28;20680;-89
2024/02/18 02:24:22;;;;;;;7.83;3.07;;;11.30;99.90;;;;;;5001345;28;20309;-89
2024/02/18 02:26:51;;;;;;;6.87;3.80;;;11.30;99.90;;;;;;5010334;28;20226;-89
2024/02/18 02:29:17;;;;;;;4.10;3.27;;;11.40;99.90;;;;;;4991004;28;20534;-89
2024/02/18 02:31:46;;;;;;;3.10;2.80;;;11.50;99.90;;;;;;4995055;28;20269;-89
2024/02/18 02:34:13;;;;;;;21.47;5.17;;;11.40;99.90;;;;;;5010345;28;20254;-89
2024/02/18 02:36:40;;;;;;;4.27;3.53;;;11.30;99.90;;;;;;5010762;28;20218;-89
2024/02/18 02:39:07;;;;;;;5.73;4.93;;;11.50;99.90;;;;;;4991059;28;20314;-88
2024/02/18 02:41:34;;;;;;;5.40;3.53;;;11.40;99.90;;;;;;4976602;28;20223;-88
2024/02/18 02:44:00;;;;;;;3.10;2.77;;;11.40;99.90;;;;;;5001494;28;20202;-89
2024/02/18 02:46:25;;;;;;;4.33;3.80;;;11.40;99.90;;;;;;4992801;28;20226;-89
2024/02/18 02:48:51;;;;;;;4.77;3.23;;;11.40;99.90;;;;;;5001212;28;20261;-88
2024/02/18 02:51:19;;;;;;;4.67;2.63;;;11.50;99.90;;;;;;4997831;28;20695;-89
2024/02/18 02:53:45;;;;;;;6.70;3.80;;;11.40;99.90;;;;;;4993767;28;20663;-88
2024/02/18 02:56:11;;;;;;;3.27;2.73;;;11.30;99.90;;;;;;5000330;28;20221;-88
2024/02/18 02:58:37;;;;;;;2.53;1.80;;;11.40;99.90;;;;;;4991636;28;20674;-89
2024/02/18 03:01:03;;;;;;;4.07;3.03;;;11.40;99.90;;;;;;4999329;28;20222;-88
2024/02/18 03:03:29;;;;;;;4.00;2.93;;;11.30;99.90;;;;;;4993081;28;20630;-88
2024/02/18 03:05:55;;;;;;;3.13;2.10;;;11.40;99.90;;;;;;4967477;28;20261;-88
2024/02/18 03:08:21;;;;;;;3.93;2.17;;;11.40;99.90;;;;;;4995650;28;20726;-88
2024/02/18 03:10:47;;;;;;;3.90;2.73;;;11.30;99.90;;;;;;5003455;28;20314;-89
2024/02/18 03:13:13;;;;;;;3.60;3.07;;;11.30;99.90;;;;;;5034676;28;20333;-88
2024/02/18 03:15:42;;;;;;;4.93;3.00;;;11.40;99.90;;;;;;5015161;28;20269;-88
2024/02/18 03:18:09;;;;;;;3.53;2.47;;;11.40;99.90;;;;;;5013788;28;20633;-89
2024/02/18 03:20:35;;;;;;;6.33;2.23;;;11.40;99.90;;;;;;5020246;28;20273;-88
2024/02/18 03:23:01;;;;;;;4.50;3.07;;;11.40;99.90;;;;;;5019257;28;20202;-88
2024/02/18 03:25:26;;;;;;;6.47;1.83;;;11.40;99.90;;;;;;5003773;28;20233;-88
2024/02/18 03:27:52;;;;;;;6.73;3.80;;;11.40;99.90;;;;;;5000824;28;20591;-89
2024/02/18 03:30:18;;;;;;;6.50;2.50;;;11.30;99.90;;;;;;5016148;28;20234;-88
2024/02/18 03:32:45;;;;;;;3.43;2.63;;;11.40;99.90;;;;;;5012082;28;20226;-88
2024/02/18 03:35:11;;;;;;;3.90;3.17;;;11.20;99.90;;;;;;5011911;28;20195;-88
2024/02/18 03:37:37;;;;;;;10.37;2.70;;;11.40;99.90;;;;;;5001504;28;20199;-88
2024/02/18 03:40:05;;;;;;;3.50;3.20;;;11.30;99.90;;;;;;4996977;28;20261;-88
2024/02/18 03:42:30;;;;;;;3.00;2.70;;;11.20;99.90;;;;;;5012612;28;20586;-88
2024/02/18 03:44:56;;;;;;;5.40;3.50;;;11.20;99.90;;;;;;5013965;28;20222;-88
2024/02/18 03:47:23;;;;;;;3.87;2.00;;;11.30;99.90;;;;;;5000911;28;20199;-88
2024/02/18 03:49:52;;;;;;;3.33;2.97;;;11.20;99.90;;;;;;5002635;28;20211;-88
2024/02/18 03:52:17;;;;;;;2.53;2.33;;;11.40;99.90;;;;;;5010231;28;20266;-88
2024/02/18 03:54:43;;;;;;;4.37;2.83;;;11.30;99.90;;;;;;4981769;28;20231;-88
2024/02/18 03:57:09;;;;;;;5.07;2.30;;;11.30;99.90;;;;;;4991882;28;20215;-88
2024/02/18 03:59:35;;;;;;;3.17;2.60;;;11.20;99.90;;;;;;4979071;28;20739;-88
2024/02/18 04:02:01;;;;;;;3.17;2.20;;;11.30;99.90;;;;;;5012344;28;20206;-88
2024/02/18 04:04:27;;;;;;;4.60;3.33;;;11.10;99.90;;;;;;5018802;28;20222;-88
2024/02/18 04:06:53;;;;;;;5.13;2.83;;;11.20;99.90;;;;;;4999181;28;20222;-88
2024/02/18 04:09:18;;;;;;;5.93;4.00;;;11.20;99.90;;;;;;4998988;28;20233;-88
2024/02/18 04:11:44;;;;;;;2.53;2.30;;;11.20;99.90;;;;;;5011225;28;20245;-87
2024/02/18 04:14:10;;;;;;;3.63;3.23;;;11.30;99.90;;;;;;5002326;28;20194;-87
2024/02/18 04:16:36;;;;;;;2.40;2.03;;;11.30;99.90;;;;;;5002534;28;20202;-88
2024/02/18 04:19:02;;;;;;;4.27;3.67;;;11.10;99.90;;;;;;5015750;28;20825;-88
2024/02/18 04:21:27;;;;;;;3.53;2.17;;;11.30;99.90;;;;;;4985360;28;20438;-88
2024/02/18 04:23:53;;;;;;;4.20;2.73;;;11.10;99.90;;;;;;5016304;28;20251;-88
2024/02/18 04:26:19;;;;;;;7.20;3.33;;;11.20;99.90;;;;;;4992531;28;20715;-87
2024/02/18 04:28:45;;;;;;;2.90;2.67;;;11.20;99.90;;;;;;4994473;28;20203;-87
2024/02/18 04:31:11;;;;;;;2.70;2.50;;;11.30;99.90;;;;;;5016391;28;20325;-88
2024/02/18 04:33:37;;;;;;;4.63;3.33;;;11.20;99.90;;;;;;5016857;28;20218;-88
2024/02/18 04:36:03;;;;;;;3.07;1.83;;;11.20;99.90;;;;;;4999863;28;20694;-88
2024/02/18 04:38:29;;;;;;;3.53;2.77;;;11.10;99.90;;;;;;5019500;28;20200;-88
2024/02/18 04:40:55;;;;;;;2.97;2.43;;;11.20;99.90;;;;;;4995071;28;21277;-88
2024/02/18 04:43:20;;;;;;;6.67;3.63;;;11.00;99.90;;;;;;5000553;28;20230;-88
2024/02/18 04:45:47;;;;;;;3.17;2.33;;;11.30;99.90;;;;;;5017688;28;20222;-88
2024/02/18 04:48:13;;;;;;;3.90;1.90;;;11.10;99.90;;;;;;5015453;28;20634;-88
2024/02/18 04:50:38;;;;;;;5.00;3.27;;;11.10;99.90;;;;;;5003057;28;20590;-88
2024/02/18 04:53:04;;;;;;;3.93;3.63;;;11.20;99.90;;;;;;4994078;28;20302;-88
2024/02/18 04:55:31;;;;;;;4.10;2.50;;;11.30;99.90;;;;;;5026156;28;20679;-88
2024/02/18 04:57:58;;;;;;;2.90;2.53;;;11.00;99.90;;;;;;5001596;28;20582;-88
2024/02/18 05:00:24;;;;;;;3.73;3.13;;;11.20;99.90;;;;;;5001479;28;20321;-88
2024/02/18 05:02:50;;;;;;;3.67;2.93;;;11.00;99.90;;;;;;5014725;28;20222;-88
2024/02/18 05:05:16;;;;;;;2.70;2.00;;;11.30;99.90;;;;;;5001783;28;20656;-88
2024/02/18 05:07:41;;;;;;;2.80;2.30;;;11.30;99.90;;;;;;4998759;28;20358;-88
2024/02/18 05:10:07;;;;;;;2.23;1.70;;;11.20;99.90;;;;;;5001289;28;20234;-88
2024/02/18 05:12:33;;;;;;;4.13;2.63;;;11.30;99.90;;;;;;5012499;28;20250;-87
2024/02/18 05:14:59;;;;;;;1.90;1.33;;;11.10;99.90;;;;;;5006589;28;20630;-88
2024/02/18 05:17:25;;;;;;;3.90;3.03;;;11.10;99.90;;;;;;4975607;28;20235;-89
2024/02/18 05:19:51;;;;;;;1.37;0.60;;;11.30;99.90;;;;;;5009753;28;20206;-88
2024/02/18 05:22:19;;;;;;;3.70;2.83;;;11.20;99.90;;;;;;4993191;28;20261;-88
2024/02/18 05:24:46;;;;;;;2.03;1.83;;;10.90;99.90;;;;;;4993864;28;20230;-88
2024/02/18 05:27:11;;;;;;;1.63;1.53;;;11.10;99.90;;;;;;4994263;28;20226;-88
2024/02/18 05:29:37;;;;;;;1.90;1.63;;;10.90;99.90;;;;;;5009670;28;20226;-88
2024/02/18 05:32:04;;;;;;;1.57;1.17;;;11.10;99.90;;;;;;4994189;28;20226;-88
2024/02/18 05:34:30;;;;;;;3.90;1.93;;;10.90;99.90;;;;;;4993705;28;20733;-88
2024/02/18 05:36:55;;;;;;;1.57;1.47;;;11.20;99.90;;;;;;5013910;28;20210;-88
2024/02/18 05:39:21;;;;;;;1.57;1.47;;;10.90;99.90;;;;;;5018142;28;20226;-88
2024/02/18 05:41:47;;;;;;;2.43;2.23;;;10.90;99.90;;;;;;5001894;28;20256;-88
2024/02/18 05:44:13;;;;;;;4.90;2.10;;;10.90;99.90;;;;;;5000174;28;20199;-88
2024/02/18 05:46:39;;;;;;;2.70;2.43;;;10.90;99.90;;;;;;4998486;28;20257;-88
2024/02/18 05:49:05;;;;;;;5.33;2.10;;;10.80;99.90;;;;;;5000744;28;20218;-88
2024/02/18 05:51:34;;;;;;;2.77;2.57;;;11.10;99.90;;;;;;5000148;28;21303;-88
2024/02/18 05:54:00;;;;;;;1.70;1.60;;;11.10;99.90;;;;;;5000915;28;20226;-88
2024/02/18 05:56:25;;;;;;;2.53;1.80;;;11.10;99.90;;;;;;4999495;28;20199;-88
2024/02/18 05:58:51;;;;;;;1.77;1.67;;;10.80;99.90;;;;;;5001682;28;20206;-88
2024/02/18 06:01:17;;;;;;;8.37;1.83;;;11.00;99.90;;;;;;4995042;28;20229;-88
2024/02/18 06:03:43;;;;;;;2.03;1.83;;;11.00;99.90;;;;;;5010292;28;20234;-88
2024/02/18 06:06:09;;;;;;;2.13;1.60;;;10.90;99.90;;;;;;4995084;28;20218;-88
2024/02/18 06:08:37;;;;;;;1.57;1.40;;;11.20;99.90;;;;;;5001311;28;20246;-88
2024/02/18 06:11:07;;;;;;;1.60;1.03;;;10.80;99.90;;;;;;5000276;28;20336;-88
2024/02/18 06:13:33;;;;;;;2.43;2.23;;;11.00;99.90;;;;;;5014855;28;20329;-87
2024/02/18 06:15:59;;;;;;;2.67;2.47;;;10.90;99.90;;;;;;5011214;28;20593;-88
2024/02/18 06:18:25;;;;;;;1.70;1.13;;;10.90;99.90;;;;;;5012291;28;20230;-88
2024/02/18 06:20:50;;;;;;;2.40;2.00;;;10.90;99.90;;;;;;5000685;28;20518;-87
2024/02/18 06:23:16;;;;;;;2.23;2.03;;;10.90;99.90;;;;;;5017173;28;20187;-88
2024/02/18 06:25:42;;;;;;;2.87;2.17;;;10.60;99.90;;;;;;5000481;28;20194;-88
2024/02/18 06:28:09;;;;;;;1.60;1.47;;;10.70;99.90;;;;;;5010151;28;20237;-88
2024/02/18 06:30:38;;;;;;;1.40;1.10;;;11.00;99.90;;;;;;5014334;28;20245;-88
2024/02/18 06:33:07;;;;;;;14.50;1.43;;;10.70;99.90;;;;;;5026259;28;20352;-88
2024/02/18 06:35:33;;;;;;;1.20;1.20;;;10.90;99.90;;;;;;5001913;28;20218;-88
2024/02/18 06:37:59;;;;;;;1.57;1.43;;;10.90;99.90;;;;;;5020350;28;20256;-88
2024/02/18 06:40:25;;;;;;;2.07;1.87;;;10.90;99.90;;;;;;4997641;28;20290;-88
2024/02/18 06:42:51;;;;;;;1.97;1.67;;;10.70;99.90;;;;;;5032671;28;20215;-88
2024/02/18 06:45:17;;;;;;;2.43;1.50;;;10.80;99.90;;;;;;5018888;28;20230;-88
2024/02/18 06:47:43;;;;;;;2.20;1.30;;;11.00;99.90;;;;;;5018657;28;20317;-88
2024/02/18 06:50:08;;;;;;;6.23;1.53;;;10.90;99.90;;;;;;5018115;28;20765;-88
2024/02/18 06:52:35;;;;;;;5.23;2.40;;;10.60;99.90;;;;;;5013486;28;20254;-88
2024/02/18 06:55:03;;;;;;;2.73;1.67;;;10.70;99.90;;;;;;5028575;28;20227;-87
2024/02/18 06:57:29;;;;;;;1.50;1.30;;;10.90;99.90;;;;;;5032515;28;20233;-87
2024/02/18 06:59:58;;;;;;;1.67;1.17;;;10.80;99.90;;;;;;5019401;28;20215;-88
2024/02/18 07:02:24;;;;;;;3.23;1.00;;;10.80;99.90;;;;;;5019949;28;20210;-88
2024/02/18 07:04:49;;;;;;;3.07;2.17;;;10.80;99.90;;;;;;4996886;28;20190;-88
2024/02/18 07:07:15;;;;;;;1.67;1.57;;;10.80;99.90;;;;;;5018147;28;20222;-87
2024/02/18 07:09:47;;;;;;;4.83;2.00;;;10.50;99.90;;;;;;5019772;28;20211;-89
2024/02/18 07:12:13;;;;;;;2.97;2.33;;;10.50;99.90;;;;;;5003674;28;20226;-87
2024/02/18 07:14:39;;;;;;;4.53;1.60;;;10.70;99.90;;;;;;5004619;28;20632;-88
2024/02/18 07:17:04;;;;;;;1.73;1.57;;;10.80;99.90;;;;;;4996045;28;20202;-88
2024/02/18 07:19:30;;;;;;;3.37;1.73;;;10.80;99.90;;;;;;4995767;28;20210;-89
2024/02/18 07:21:56;;;;;;;2.23;1.60;;;10.50;99.90;;;;;;5000972;28;20234;-87
2024/02/18 07:24:22;;;;;;;1.50;1.20;;;10.50;99.90;;;;;;5017646;28;20698;-88
2024/02/18 07:26:48;;;;;;;3.70;1.63;;;10.50;99.90;;;;;;5002179;28;20242;-88
2024/02/18 07:29:14;;;;;;;1.27;1.17;;;10.40;99.90;;;;;;4996205;28;20689;-87
2024/02/18 07:31:39;;;;;;;7.27;1.77;;;10.50;99.90;;;;;;5004329;28;20222;-87
2024/02/18 07:34:06;;;;;;;1.23;1.13;;;10.40;99.90;;;;;;5019550;28;20245;-88
2024/02/18 07:36:33;;;;;;;1.63;1.53;;;10.50;99.90;;;;;;4988818;28;20587;-88
2024/02/18 07:38:59;;;;;;;0.63;0.60;;;10.70;99.90;;;;;;5002781;28;20325;-87
2024/02/18 07:41:25;;;;;;;1.30;1.13;;;10.60;99.90;;;;;;5003129;28;20253;-88
2024/02/18 07:43:51;;;;;;;2.30;2.10;;;10.60;99.90;;;;;;5004057;28;20245;-88
2024/02/18 07:46:20;;;;;;;2.10;1.63;;;10.70;99.90;;;;;;5027563;28;20230;-87
2024/02/18 07:48:46;;;;;;;3.43;1.53;;;10.40;99.90;;;;;;4995278;28;20218;-87
2024/02/18 07:51:12;;;;;;;1.07;0.97;;;10.40;99.90;;;;;;4996051;28;20238;-87
2024/02/18 07:53:38;;;;;;;0.90;0.90;;;10.70;99.90;;;;;;5002803;28;20226;-88
2024/02/18 07:56:04;;;;;;;1.83;1.10;;;10.60;99.90;;;;;;4995646;28;20220;-88
2024/02/18 07:58:30;;;;;;;2.80;2.10;;;10.50;99.90;;;;;;5001891;28;20229;-88
2024/02/18 08:00:56;;;;;;;1.47;1.37;;;10.70;99.90;;;;;;5011957;28;20214;-88
2024/02/18 08:03:25;;;;;;;0.73;0.73;;;10.70;99.90;;;;;;5014877;28;20257;-87
2024/02/18 08:05:50;;;;;;;2.93;1.77;;;10.50;99.90;;;;;;5020196;28;20222;-88
2024/02/18 08:08:16;;;;;;;1.90;1.00;;;10.60;99.90;;;;;;5008800;28;20197;-88
2024/02/18 08:10:42;;;;;;;1.20;1.03;;;10.30;99.90;;;;;;5019718;28;20218;-88
2024/02/18 08:13:09;;;;;;;1.13;1.10;;;10.40;99.90;;;;;;5000657;28;20743;-88
2024/02/18 08:15:35;;;;;;;2.63;0.93;;;10.60;99.90;;;;;;5002435;28;20249;-88
2024/02/18 08:18:01;;;;;;;1.57;1.47;;;10.40;99.90;;;;;;4992438;28;20215;-90
2024/02/18 08:20:28;;;;;;;3.30;1.17;;;10.50;99.90;;;;;;4992104;28;20207;-90
2024/02/18 08:22:54;;;;;;;2.03;1.83;;;10.50;99.90;;;;;;5008582;28;20281;-88
2024/02/18 08:25:20;;;;;;;1.80;1.70;;;10.60;99.90;;;;;;4991865;28;20241;-88
2024/02/18 08:27:46;;;;;;;0.77;0.63;;;10.60;99.90;;;;;;4992060;28;20235;-88
2024/02/18 08:30:13;;;;;;;1.10;1.00;;;10.40;99.90;;;;;;4975819;28;20285;-89
2024/02/18 08:32:38;;;;;;;0.53;0.50;;;10.50;99.90;;;;;;4976475;28;20219;-87
2024/02/18 08:35:05;;;;;;;1.07;1.07;;;10.30;99.90;;;;;;4976702;28;20230;-88
2024/02/18 08:37:31;;;;;;;1.93;1.13;;;10.50;99.90;;;;;;5001523;28;20221;-88
2024/02/18 08:39:57;;;;;;;1.60;0.97;;;10.60;99.90;;;;;;5016274;28;20223;-89
2024/02/18 08:42:23;;;;;;;1.67;1.57;;;10.40;99.90;;;;;;5010800;28;20241;-89
2024/02/18 08:44:49;;;;;;;2.30;1.90;;;10.30;99.90;;;;;;4981336;28;20227;-88
2024/02/18 08:47:14;;;;;;;1.53;0.90;;;10.30;99.90;;;;;;5012677;28;20202;-88
2024/02/18 08:49:43;;;;;;;2.23;1.67;;;10.70;99.90;;;;;;4996050;28;20194;-88
2024/02/18 08:52:09;;;;;;;1.03;1.00;;;10.60;99.90;;;;;;5008788;28;20239;-88
2024/02/18 08:54:37;;;;;;;2.93;2.30;;;10.40;99.90;;;;;;4976086;28;20231;-87
2024/02/18 08:57:03;;;;;;;2.23;1.30;;;10.40;99.90;;;;;;4974626;28;20274;-88
2024/02/18 08:59:29;;;;;;;2.67;1.47;;;10.60;99.90;;;;;;4993890;28;20210;-89
2024/02/18 09:01:58;;;;;;;2.30;1.47;;;10.60;99.90;;;;;;4995883;28;20591;-89
2024/02/18 09:04:24;;;;;;;1.00;1.00;;;10.40;99.90;;;;;;5001968;28;20230;-89
2024/02/18 09:06:50;;;;;;;6.90;1.60;;;10.70;99.90;;;;;;4978132;28;20222;-88
2024/02/18 09:09:16;;;;;;;8.73;2.03;;;10.50;99.90;;;;;;5003343;28;20233;-89
2024/02/18 09:11:44;;;;;;;0.70;0.70;;;10.80;99.90;;;;;;5020013;28;20262;-89
2024/02/18 09:14:10;;;;;;;1.23;0.73;;;10.60;99.90;;;;;;5018022;28;20613;-88
2024/02/18 09:16:36;;;;;;;1.40;1.30;;;10.30;99.90;;;;;;5002013;28;20626;-88
2024/02/18 09:19:02;;;;;;;1.03;0.97;;;10.60;99.90;;;;;;5018094;28;20253;-89
2024/02/18 09:21:28;;;;;;;2.30;1.20;;;10.60;99.90;;;;;;5011086;28;20254;-88
2024/02/18 09:23:54;;;;;;;1.33;1.10;;;10.40;99.90;;;;;;5032138;28;20222;-90
2024/02/18 09:26:20;;;;;;;0.73;0.73;;;10.60;99.90;;;;;;4993363;28;20207;-90
2024/02/18 09:28:46;;;;;;;1.40;1.30;;;10.50;99.90;;;;;;5001453;28;20205;-90
2024/02/18 09:31:13;;;;;;;0.67;0.40;;;10.60;99.90;;;;;;5000582;28;20223;-89
2024/02/18 09:33:42;;;;;;;1.57;1.47;;;10.60;99.90;;;;;;4998167;28;21221;-88
2024/02/18 09:36:08;;;;;;;0.60;0.60;;;10.40;99.90;;;;;;4994587;28;20218;-92
2024/02/18 09:38:34;;;;;;;1.30;1.20;;;10.30;99.90;;;;;;4987397;28;20230;-90
2024/02/18 09:41:00;;;;;;;1.47;1.33;;;10.50;99.90;;;;;;5011794;28;20669;-91
2024/02/18 09:43:30;;;;;;;1.60;1.30;;;10.50;99.90;;;;;;4976167;28;20226;-89
2024/02/18 09:46:00;;;;;;;1.00;0.90;;;10.50;99.90;;;;;;4994373;28;20222;-89
2024/02/18 09:48:28;;;;;;;1.43;1.33;;;10.50;99.90;;;;;;4993758;28;20233;-89
2024/02/18 09:50:53;;;;;;;2.83;1.63;;;10.20;99.90;;;;;;5012128;28;20265;-88
2024/02/18 09:53:20;;;;;;;1.47;1.20;;;10.40;99.90;;;;;;5027850;28;20315;-89
2024/02/18 09:55:48;;;;;;;1.03;0.90;;;10.20;99.90;;;;;;5017344;28;20264;-88
2024/02/18 09:58:14;;;;;;;7.03;2.00;;;10.50;99.90;;;;;;5014496;28;20214;-89
2024/02/18 10:00:40;;;;;;;1.30;1.20;;;10.20;99.90;;;;;;5000810;28;20241;-90
2024/02/18 10:03:08;;;;;;;0.93;0.93;;;10.20;99.90;;;;;;4999513;28;20593;-89
2024/02/18 10:05:35;;;;;;;1.00;0.90;;;10.40;99.90;;;;;;5017481;28;20276;-89
2024/02/18 10:08:04;;;;;;;1.50;1.40;;;10.10;99.90;;;;;;5016940;28;20191;-88
2024/02/18 10:10:34;;;;;;;0.47;0.47;;;10.10;99.90;;;;;;4996601;28;20256;-89
2024/02/18 10:13:06;;;;;;;2.23;1.47;;;10.50;99.90;;;;;;4997628;28;20194;-88
2024/02/18 10:15:32;;;;;;;0.90;0.80;;;10.40;99.90;;;;;;5021379;28;20213;-89
2024/02/18 10:17:58;;;;;;;1.63;1.50;;;10.50;99.90;;;;;;5014427;28;20349;-89
2024/02/18 10:20:27;;;;;;;1.73;1.60;;;10.60;99.90;;;;;;5005385;28;20248;-89
2024/02/18 10:22:54;;;;;;;1.13;0.90;;;10.20;99.90;;;;;;5014518;28;20721;-88
2024/02/18 10:25:20;;;;;;;2.07;1.43;;;10.50;99.90;;;;;;4999949;28;20218;-89
2024/02/18 10:27:46;;;;;;;1.07;0.63;;;10.20;99.90;;;;;;5021075;28;20261;-88
2024/02/18 10:30:12;;;;;;;1.20;1.03;;;10.60;99.90;;;;;;5000503;28;20318;-89
2024/02/18 10:32:38;;;;;;;5.53;1.10;;;10.60;99.90;;;;;;5013712;28;20656;-89
2024/02/18 10:35:05;;;;;;;1.57;0.97;;;10.20;99.90;;;;;;4999199;28;20199;-89
2024/02/18 10:37:42;;;;;;;1.27;1.10;;;10.50;99.90;;;;;;5029577;28;20308;-89
2024/02/18 10:40:15;;;;;;;1.83;1.37;;;10.50;99.90;;;;;;4997013;28;20230;-89
2024/02/18 10:42:51;;;;;;;2.63;1.23;;;10.20;99.90;;;;;;5019781;28;20227;-89
2024/02/18 10:45:21;;;;;;;0.67;0.67;;;10.30;99.90;;;;;;5017531;28;20214;-89
2024/02/18 10:47:53;;;;;;;0.80;0.80;;;10.50;99.90;;;;;;5020250;28;20191;-88
2024/02/18 10:50:21;;;;;;;0.87;0.87;;;10.60;99.90;;;;;;4978887;28;20223;-89
2024/02/18 10:52:58;;;;;;;1.33;1.30;;;10.30;99.90;;;;;;5020514;28;20350;-89
2024/02/18 10:55:44;;;;;;;1.27;1.17;;;10.30;99.90;;;;;;5028905;28;20312;-89
2024/02/18 10:58:26;;;;;;;0.90;0.80;;;10.50;99.90;;;;;;5028642;28;20273;-89
2024/02/18 11:00:57;;;;;;;0.73;0.53;;;10.30;99.90;;;;;;5012970;28;20321;-89
2024/02/18 11:03:51;;;;;;;1.20;1.10;;;10.30;99.90;;;;;;5017089;28;20254;-88
2024/02/18 11:06:19;;;;;;;0.93;0.90;;;10.20;99.90;;;;;;5016093;28;20227;-89
2024/02/18 11:08:46;;;;;;;1.17;1.10;;;10.30;99.90;;;;;;5021961;28;20694;-90
2024/02/18 11:11:13;;;;;;;1.33;1.07;;;10.40;99.90;;;;;;4996019;28;20231;-88
2024/02/18 11:13:43;;;;;;;1.57;1.47;;;10.50;99.90;;;;;;5013159;28;20752;-89
2024/02/18 11:16:09;;;;;;;0.90;0.90;;;10.20;99.90;;;;;;5002804;28;20225;-88
2024/02/18 11:18:37;;;;;;;1.30;1.20;;;10.50;99.90;;;;;;5003500;28;20700;-89
2024/02/18 11:21:06;;;;;;;0.93;0.93;;;10.20;99.90;;;;;;5001575;28;20237;-88
2024/02/18 11:23:32;;;;;;;0.43;0.43;;;10.10;99.90;;;;;;5020856;28;20198;-88
2024/02/18 11:25:59;;;;;;;1.17;1.13;;;10.20;99.90;;;;;;4997380;28;20201;-89
2024/02/18 11:28:25;;;;;;;3.77;1.03;;;10.30;99.90;;;;;;5020119;28;20620;-89
2024/02/18 11:30:51;;;;;;;1.17;0.90;;;10.20;99.90;;;;;;5005660;28;20249;-89
2024/02/18 11:33:18;;;;;;;1.70;1.53;;;10.30;99.90;;;;;;4989623;28;20230;-88
2024/02/18 11:35:44;;;;;;;1.23;0.90;;;10.40;99.90;;;;;;5002677;28;20729;-89
2024/02/18 11:38:11;;;;;;;4.57;1.33;;;10.30;99.90;;;;;;5004311;28;20203;-88
2024/02/18 11:40:52;;;;;;;1.50;1.40;;;10.10;99.90;;;;;;5004333;28;20229;-88
2024/02/18 11:43:18;;;;;;;0.90;0.60;;;10.30;99.90;;;;;;5029131;28;20218;-88
2024/02/18 11:45:46;;;;;;;1.30;1.10;;;10.50;99.90;;;;;;5003484;28;20234;-88
2024/02/18 11:48:12;;;;;;;0.63;0.63;;;10.30;99.90;;;;;;5019951;28;20230;-89
2024/02/18 11:50:39;;;;;;;0.70;0.70;;;10.50;99.90;;;;;;5004618;28;20261;-88
2024/02/18 11:53:09;;;;;;;0.97;0.77;;;10.30;99.90;;;;;;5013015;28;20202;-88
2024/02/18 11:55:35;;;;;;;1.47;1.17;;;10.20;99.90;;;;;;5019465;28;20226;-88
2024/02/18 11:58:03;;;;;;;0.73;0.67;;;10.20;99.90;;;;;;5003530;28;20321;-87
2024/02/18 12:00:29;;;;;;;1.13;0.87;;;10.20;99.90;;;;;;4997792;28;20572;-87
2024/02/18 12:02:55;;;;;;;1.50;1.07;;;10.30;99.90;;;;;;5016881;28;20242;-88
2024/02/18 12:05:25;;;;;;;0.67;0.57;;;10.40;99.90;;;;;;4984999;28;20313;-88
2024/02/18 12:07:54;;;;;;;1.33;0.80;;;10.20;99.90;;;;;;5011484;28;20198;-87
2024/02/18 12:10:21;;;;;;;1.23;0.83;;;10.50;99.90;;;;;;5001948;28;20242;-88
2024/02/18 12:12:47;;;;;;;0.43;0.43;;;10.30;99.90;;;;;;5001603;28;20220;-88
2024/02/18 12:15:25;;;;;;;0.80;0.80;;;10.20;99.90;;;;;;5001006;28;20222;-88
2024/02/18 12:17:54;;;;;;;4.90;1.53;;;10.40;99.90;;;;;;4992953;28;20219;-90
2024/02/18 12:20:22;;;;;;;0.57;0.57;;;10.10;99.90;;;;;;4977939;28;20192;-88
2024/02/18 12:22:48;;;;;;;1.17;0.77;;;10.30;99.90;;;;;;4992829;28;20967;-87
2024/02/18 12:25:14;;;;;;;0.87;0.60;;;10.50;99.90;;;;;;5009965;28;20310;-88
2024/02/18 12:27:45;;;;;;;1.70;1.20;;;10.50;99.90;;;;;;5006897;28;20247;-88
2024/02/18 12:30:12;;;;;;;1.00;0.90;;;10.30;99.90;;;;;;4989514;28;20257;-88
2024/02/18 12:32:39;;;;;;;0.73;0.73;;;10.20;99.90;;;;;;4990378;28;20354;-87
2024/02/18 12:35:09;;;;;;;1.57;1.47;;;10.10;99.90;;;;;;5008944;28;20192;-88
2024/02/18 12:37:35;;;;;;;0.87;0.87;;;10.20;99.90;;;;;;5006847;28;20300;-88
2024/02/18 12:40:05;;;;;;;1.83;1.27;;;10.10;99.90;;;;;;5023058;28;20230;-87
2024/02/18 12:42:31;;;;;;;1.47;0.80;;;10.40;99.90;;;;;;4991740;28;20219;-88